Terminal Aerodrome Forecast
Issued by NWS

Home | Current Version | Previous Version | Text Only | Print | Product List | Glossary On
Versions: 1 2 3 4 5 6 7 8 9 10 11 12 13 14 15
000
FTUS43 KTOP 240656 AAA
TAFFOE
TAF AMD
KFOE 240656Z 2407/2506 19008KT P6SM SCT030 SCT200 WS020/21045KT
     FM241300 21010KT P6SM FEW040 BKN150
     FM242100 21008KT P6SM VCTS BKN040CB=

USA.gov is the U.S. government's official web portal to all federal, state and local government web resources and services.